Chatham, New Hampshire
Current Conditions -  °F | °C
As of 11:16 AM on Thursday 23 Oct 2014 (Local Time) from KIZG Reporting Station
Light Rain Light Rain  
Wind Chill: 44°   Ceiling: 1200
Heat Index: 49°   Visibility: 3mi
Dew Point: 46°   Wind: 12mph
Humidity: 90%   Direction: 20°NNE
Pressure: 29.85"   Gusts: 20mph
Location:  43.9597°N, 71.0453°W
Report Text: KIZG 231516Z AUTO 02010G17KT 3SM -RA BR BKN012 OVC020 09/08 A2985 RMK AO2 P0010 T00940078
Loading
Personal Weather Stations






























Interactive Weather Map
Tropical Storm Tracking
New forecast layout! Learn more

10-Day Weather Forecast

Advertisements
Track Severe Weather on mobile